createdAt,value
2023-01-26T00:01:00.379Z,102359.81
2023-01-26T00:04:02.472Z,102342.44
2023-01-26T00:07:04.741Z,102356.84
2023-01-26T00:10:06.971Z,102357.38
2023-01-26T00:13:11.256Z,102357.97
2023-01-26T00:16:15.229Z,102356.84
2023-01-26T00:19:17.500Z,102350.84
2023-01-26T00:22:19.603Z,102348.53
2023-01-26T00:25:22.233Z,102347.03
2023-01-26T00:28:24.439Z,102346.81
2023-01-26T00:31:27.814Z,102338.88
2023-01-26T00:34:30.345Z,102338.50
2023-01-26T00:37:33.029Z,102339.09
2023-01-26T00:40:35.046Z,102343.03
2023-01-26T00:43:37.060Z,102327.72
2023-01-26T00:46:39.181Z,102326.38
2023-01-26T00:49:42.166Z,102325.03
2023-01-26T00:52:44.405Z,102316.34
2023-01-26T00:55:46.706Z,102313.06
2023-01-26T00:58:48.923Z,102311.47
2023-01-26T01:01:54.129Z,102303.88
2023-01-26T01:04:56.575Z,102309.63
2023-01-26T01:07:59.354Z,102306.78
2023-01-26T01:11:10.874Z,102300.81
2023-01-26T01:14:13.742Z,102292.47
2023-01-26T01:17:15.737Z,102296.28
2023-01-26T01:20:17.875Z,102281.00
2023-01-26T01:23:22.087Z,102267.19
2023-01-26T01:26:25.249Z,102258.41
2023-01-26T01:29:27.555Z,102279.28
2023-01-26T01:32:30.190Z,102282.81
2023-01-26T01:35:34.610Z,102286.84
2023-01-26T01:38:37.106Z,102285.41
2023-01-26T01:41:39.150Z,102281.56
2023-01-26T01:44:43.850Z,102272.91
2023-01-26T01:47:46.084Z,102273.53
2023-01-26T01:50:50.343Z,102267.69
2023-01-26T01:53:58.298Z,102261.06
2023-01-26T01:57:05.649Z,102265.06
2023-01-26T02:00:10.369Z,102267.91
2023-01-26T02:03:21.562Z,102263.94
2023-01-26T02:06:42.491Z,102257.88
2023-01-26T02:10:04.209Z,102259.69
2023-01-26T02:13:07.796Z,102250.75
2023-01-26T02:16:09.925Z,102250.31
2023-01-26T02:19:29.433Z,102235.41
2023-01-26T02:23:06.388Z,102245.03
2023-01-26T02:26:15.051Z,102239.78
2023-01-26T02:29:17.599Z,102243.78
2023-01-26T02:32:19.798Z,102233.41
2023-01-26T02:35:23.201Z,102222.78
2023-01-26T02:38:29.131Z,102232.75
2023-01-26T02:41:49.900Z,102230.59
2023-01-26T02:44:51.957Z,102222.78
2023-01-26T02:47:54.509Z,102218.47
2023-01-26T02:50:56.599Z,102213.22
2023-01-26T02:53:58.560Z,102204.28
2023-01-26T02:57:00.670Z,102210.03
2023-01-26T03:00:11.393Z,102214.56
2023-01-26T03:03:43.457Z,102200.84
2023-01-26T03:06:45.495Z,102200.25
2023-01-26T03:09:47.550Z,102193.03
2023-01-26T03:12:49.643Z,102190.50
2023-01-26T03:15:54.789Z,102187.06
2023-01-26T03:19:04.578Z,102190.50
2023-01-26T03:22:25.321Z,102189.34
2023-01-26T03:25:46.350Z,102189.63
2023-01-26T03:28:48.486Z,102181.28
2023-01-26T03:31:52.959Z,102183.25
2023-01-26T03:34:55.971Z,102185.09
2023-01-26T03:37:59.487Z,102180.56
2023-01-26T03:41:33.169Z,102185.09
2023-01-26T03:44:54.104Z,102174.59
2023-01-26T03:48:22.838Z,102173.19
2023-01-26T03:51:43.954Z,102156.25
2023-01-26T03:55:04.997Z,102154.56
2023-01-26T03:58:08.620Z,102165.06
2023-01-26T04:01:11.256Z,102172.06
2023-01-26T04:04:32.159Z,102167.66
2023-01-26T04:07:53.451Z,102159.78
2023-01-26T04:10:56.409Z,102163.63
2023-01-26T04:14:21.153Z,102161.53
2023-01-26T04:17:41.762Z,102166.44
2023-01-26T04:21:02.272Z,102160.78
2023-01-26T04:24:17.174Z,102162.63
2023-01-26T04:27:21.536Z,102170.56
2023-01-26T04:30:23.753Z,102172.81
2023-01-26T04:33:26.027Z,102169.31
2023-01-26T04:36:28.473Z,102165.88
2023-01-26T04:39:30.592Z,102171.41
2023-01-26T04:42:32.853Z,102171.41
2023-01-26T04:45:36.634Z,102163.75
2023-01-26T04:48:39.446Z,102177.09
2023-01-26T04:51:41.463Z,102178.78
2023-01-26T04:54:45.012Z,102179.50
2023-01-26T04:57:47.088Z,102182.31
2023-01-26T05:00:54.938Z,102188.91
2023-01-26T05:04:01.138Z,102181.59
2023-01-26T05:07:04.706Z,102174.03
2023-01-26T05:10:08.317Z,102169.00
2023-01-26T05:13:19.840Z,102175.69
2023-01-26T05:16:51.305Z,102175.84
2023-01-26T05:20:12.453Z,102174.25
2023-01-26T05:23:18.345Z,102165.06
2023-01-26T05:26:38.823Z,102169.81
2023-01-26T05:29:45.921Z,102168.13
2023-01-26T05:32:48.143Z,102176.28
2023-01-26T05:35:53.531Z,102166.56
2023-01-26T05:38:55.728Z,102177.53
2023-01-26T05:42:02.180Z,102178.00
2023-01-26T05:45:13.293Z,102181.94
2023-01-26T05:48:15.844Z,102175.34
2023-01-26T05:51:19.277Z,102187.44
2023-01-26T05:54:21.618Z,102186.13
2023-01-26T05:57:24.552Z,102183.81
2023-01-26T06:00:31.900Z,102183.31
2023-01-26T06:03:41.491Z,102180.88
2023-01-26T06:06:44.095Z,102176.78
2023-01-26T06:09:58.358Z,102177.44
2023-01-26T06:13:14.407Z,102171.09
2023-01-26T06:16:21.960Z,102178.56
2023-01-26T06:19:25.077Z,102177.94
2023-01-26T06:22:32.120Z,102182.19
2023-01-26T06:25:34.622Z,102178.78
2023-01-26T06:28:37.303Z,102176.19
2023-01-26T06:31:39.927Z,102179.72
2023-01-26T06:34:42.681Z,102191.34
2023-01-26T06:37:51.574Z,102174.34
2023-01-26T06:40:53.777Z,102173.50
2023-01-26T06:43:57.069Z,102175.19
2023-01-26T06:46:59.176Z,102167.97
2023-01-26T06:50:01.458Z,102160.78
2023-01-26T06:53:22.053Z,102163.94
2023-01-26T06:56:41.112Z,102162.84
2023-01-26T06:59:57.359Z,102168.97
2023-01-26T07:03:11.830Z,102171.84
2023-01-26T07:06:13.906Z,102164.88
2023-01-26T07:09:15.838Z,102164.63
2023-01-26T07:12:17.963Z,102156.81
2023-01-26T07:15:20.150Z,102160.22
2023-01-26T07:18:22.262Z,102160.41
2023-01-26T07:21:24.700Z,102153.47
2023-01-26T07:24:26.886Z,102151.97
2023-01-26T07:27:29.393Z,102163.03
2023-01-26T07:30:31.536Z,102161.88
2023-01-26T07:33:35.073Z,102161.34
2023-01-26T07:36:37.129Z,102156.69
2023-01-26T07:39:39.150Z,102155.13
2023-01-26T07:42:41.259Z,102152.69
2023-01-26T07:46:15.329Z,102157.06
2023-01-26T07:49:17.478Z,102148.88
2023-01-26T07:52:19.753Z,102141.66
2023-01-26T07:55:23.322Z,102137.38
2023-01-26T07:58:25.378Z,102145.34
2023-01-26T08:01:27.557Z,102142.25
2023-01-26T08:04:29.852Z,102144.78
2023-01-26T08:07:32.833Z,102140.41
2023-01-26T08:10:35.031Z,102138.69
2023-01-26T08:13:38.185Z,102131.22
2023-01-26T08:16:40.447Z,102144.53
2023-01-26T08:19:42.779Z,102139.88
2023-01-26T08:22:44.821Z,102135.78
2023-01-26T08:25:47.557Z,102129.63
2023-01-26T08:28:53.327Z,102113.34
2023-01-26T08:31:55.591Z,102130.81
2023-01-26T08:34:57.641Z,102131.00
2023-01-26T08:38:00.105Z,102140.38
2023-01-26T08:41:03.047Z,102127.81
2023-01-26T08:44:05.464Z,102143.84
2023-01-26T08:47:07.436Z,102132.69
2023-01-26T08:50:10.431Z,102125.84
2023-01-26T08:53:13.090Z,102128.53
2023-01-26T08:56:15.229Z,102126.03
2023-01-26T08:59:17.345Z,102106.97
2023-01-26T09:02:19.432Z,102121.09
2023-01-26T09:05:21.479Z,102112.41
2023-01-26T09:08:23.594Z,102104.88
2023-01-26T09:11:25.615Z,102091.97
2023-01-26T09:14:28.918Z,102098.44
2023-01-26T09:17:31.072Z,102080.66
2023-01-26T09:20:33.164Z,102082.34
2023-01-26T09:23:36.862Z,102075.88
2023-01-26T09:26:39.008Z,102084.13
2023-01-26T09:29:41.087Z,102075.34
2023-01-26T09:32:43.100Z,102076.19
2023-01-26T09:35:45.296Z,102065.25
2023-01-26T09:38:47.398Z,102073.34
2023-01-26T09:42:16.193Z,102062.75
2023-01-26T09:45:27.874Z,102056.38
2023-01-26T09:48:59.260Z,102059.31
2023-01-26T09:52:18.966Z,102048.84
2023-01-26T09:55:23.415Z,102039.22
2023-01-26T09:58:39.613Z,102041.19
2023-01-26T10:02:00.235Z,102035.63
2023-01-26T10:05:12.137Z,102027.41
2023-01-26T10:08:18.963Z,102032.25
2023-01-26T10:11:40.659Z,102023.16
2023-01-26T10:14:55.934Z,102028.44
2023-01-26T10:18:08.132Z,102017.38
2023-01-26T10:21:12.586Z,102008.84
2023-01-26T10:24:20.904Z,102005.28
2023-01-26T10:27:23.334Z,102012.09
2023-01-26T10:30:25.826Z,102001.88
2023-01-26T10:33:32.832Z,102002.47
2023-01-26T10:36:35.767Z,101988.00
2023-01-26T10:40:01.164Z,101973.38
2023-01-26T10:43:03.595Z,101968.69
2023-01-26T10:46:05.733Z,101969.28
2023-01-26T10:49:14.630Z,101967.41
2023-01-26T10:52:17.644Z,101962.72
2023-01-26T10:55:22.604Z,101958.59
2023-01-26T10:58:50.327Z,101950.25
2023-01-26T11:02:15.713Z,101950.81
2023-01-26T11:05:23.447Z,101941.31
2023-01-26T11:08:36.327Z,101940.59
2023-01-26T11:11:38.597Z,101935.47
2023-01-26T11:14:40.759Z,101928.81
2023-01-26T11:17:51.569Z,101927.66
2023-01-26T11:21:27.864Z,101914.75
2023-01-26T11:24:34.380Z,101911.66
2023-01-26T11:27:57.132Z,101910.50
2023-01-26T11:31:32.999Z,101901.28
2023-01-26T11:35:20.049Z,101899.44
2023-01-26T11:38:42.422Z,101893.63
2023-01-26T11:41:49.219Z,101893.91
2023-01-26T11:45:28.256Z,101898.88
2023-01-26T11:48:48.901Z,101892.78
2023-01-26T11:52:29.222Z,101879.75
2023-01-26T11:55:59.046Z,101882.16
2023-01-26T11:59:10.852Z,101879.59
2023-01-26T12:02:30.891Z,101888.66
2023-01-26T12:05:46.126Z,101878.44
2023-01-26T12:09:30.742Z,101878.00
2023-01-26T12:12:40.725Z,101878.03
2023-01-26T12:15:50.336Z,101870.53
2023-01-26T12:19:11.242Z,101874.06
2023-01-26T12:22:33.264Z,101872.34
2023-01-26T12:25:49.713Z,101879.84
2023-01-26T12:29:19.804Z,101874.91
2023-01-26T12:32:23.096Z,101875.34
2023-01-26T12:35:43.545Z,101873.06
2023-01-26T12:39:10.277Z,101881.13
2023-01-26T12:42:38.483Z,101887.97
2023-01-26T12:45:43.872Z,101873.78
2023-01-26T12:48:52.316Z,101873.94
2023-01-26T12:52:08.355Z,101873.94
2023-01-26T12:55:28.374Z,101860.13
2023-01-26T12:58:35.770Z,101880.44
2023-01-26T13:01:41.702Z,101863.00
2023-01-26T13:04:48.606Z,101876.75
2023-01-26T13:07:51.144Z,101871.38
2023-01-26T13:10:53.166Z,101877.59
2023-01-26T13:13:57.464Z,101870.63
2023-01-26T13:17:17.842Z,101877.56
2023-01-26T13:20:28.282Z,101878.44
2023-01-26T13:23:42.169Z,101881.25
2023-01-26T13:26:51.694Z,101872.59
2023-01-26T13:29:58.211Z,101872.47
2023-01-26T13:33:17.103Z,101867.50
2023-01-26T13:36:21.286Z,101877.84
2023-01-26T13:39:32.417Z,101863.81
2023-01-26T13:42:58.402Z,101865.78
2023-01-26T13:46:18.244Z,101874.88
2023-01-26T13:49:40.110Z,101868.66
2023-01-26T13:52:42.776Z,101869.91
2023-01-26T13:55:58.164Z,101860.28
2023-01-26T13:59:04.752Z,101869.19
2023-01-26T14:02:22.302Z,101836.28
2023-01-26T14:05:24.830Z,101870.47
2023-01-26T14:08:27.260Z,101849.75
2023-01-26T14:11:33.099Z,101862.69
2023-01-26T14:14:37.893Z,101854.44
2023-01-26T14:17:51.652Z,101859.41
2023-01-26T14:21:06.117Z,101856.16
2023-01-26T14:24:14.593Z,101852.44
2023-01-26T14:27:30.189Z,101854.44
2023-01-26T14:30:34.612Z,101855.16
2023-01-26T14:33:38.108Z,101849.75
2023-01-26T14:36:40.354Z,101846.50
2023-01-26T14:39:45.018Z,101846.78
2023-01-26T14:42:53.282Z,101850.06
2023-01-26T14:46:17.295Z,101844.66
2023-01-26T14:49:43.861Z,101833.31
2023-01-26T14:52:46.817Z,101842.81
2023-01-26T14:55:50.794Z,101845.81
2023-01-26T14:58:55.182Z,101845.09
2023-01-26T15:02:19.688Z,101844.25
2023-01-26T15:05:35.487Z,101837.28
2023-01-26T15:08:42.164Z,101820.53
2023-01-26T15:12:10.198Z,101825.81
2023-01-26T15:15:13.834Z,101826.38
2023-01-26T15:18:22.504Z,101823.53
2023-01-26T15:21:33.828Z,101823.69
2023-01-26T15:24:40.398Z,101821.84
2023-01-26T15:27:42.541Z,101827.91
2023-01-26T15:30:51.355Z,101829.91
2023-01-26T15:33:54.916Z,101828.09
2023-01-26T15:36:58.755Z,101829.22
2023-01-26T15:40:00.964Z,101817.44
2023-01-26T15:43:17.334Z,101824.81
2023-01-26T15:46:19.394Z,101809.91
2023-01-26T15:49:23.233Z,101823.53
2023-01-26T15:52:30.592Z,101832.47
2023-01-26T15:55:34.019Z,101827.91
2023-01-26T15:58:37.311Z,101824.81
2023-01-26T16:01:40.291Z,101831.91
2023-01-26T16:04:43.131Z,101813.47
2023-01-26T16:07:45.984Z,101827.53
2023-01-26T16:10:48.579Z,101824.53
2023-01-26T16:14:02.481Z,101817.84
2023-01-26T16:17:13.544Z,101820.28
2023-01-26T16:20:15.705Z,101822.69
2023-01-26T16:23:17.855Z,101827.06
2023-01-26T16:26:19.922Z,101821.84
2023-01-26T16:29:22.055Z,101819.84
2023-01-26T16:32:30.049Z,101807.81
2023-01-26T16:35:32.075Z,101809.78
2023-01-26T16:38:34.178Z,101818.41
2023-01-26T16:41:36.303Z,101819.13
2023-01-26T16:44:38.526Z,101814.88
2023-01-26T16:47:40.545Z,101815.16
2023-01-26T16:50:44.776Z,101811.91
2023-01-26T16:53:48.181Z,101804.25
2023-01-26T16:56:50.331Z,101802.25
2023-01-26T16:59:52.780Z,101799.72
2023-01-26T17:02:54.835Z,101794.91
2023-01-26T17:05:56.988Z,101798.88
2023-01-26T17:08:59.237Z,101802.25
2023-01-26T17:12:01.259Z,101800.88
2023-01-26T17:15:05.457Z,101798.72
2023-01-26T17:18:12.069Z,101794.19
2023-01-26T17:21:16.067Z,101799.13
2023-01-26T17:24:18.182Z,101802.72
2023-01-26T17:27:20.299Z,101801.16
2023-01-26T17:30:22.577Z,101805.13
2023-01-26T17:33:24.673Z,101791.78
2023-01-26T17:36:32.023Z,101797.16
2023-01-26T17:39:37.029Z,101791.50
2023-01-26T17:42:43.215Z,101785.25
2023-01-26T17:45:45.548Z,101780.59
2023-01-26T17:48:49.019Z,101787.38
2023-01-26T17:51:51.356Z,101774.75
2023-01-26T17:54:53.430Z,101772.63
2023-01-26T17:57:55.613Z,101767.25
2023-01-26T18:00:57.739Z,101764.88
2023-01-26T18:03:59.883Z,101767.13
2023-01-26T18:07:02.279Z,101767.53
2023-01-26T18:10:05.257Z,101766.13
2023-01-26T18:13:07.477Z,101760.91
2023-01-26T18:16:14.808Z,101755.06
2023-01-26T18:19:17.124Z,101754.06
2023-01-26T18:22:19.983Z,101745.44
2023-01-26T18:25:30.543Z,101748.97
2023-01-26T18:28:33.189Z,101736.63
2023-01-26T18:31:42.770Z,101727.75
2023-01-26T18:34:52.161Z,101737.75
2023-01-26T18:37:54.222Z,101739.03
2023-01-26T18:40:56.289Z,101747.84
2023-01-26T18:43:59.775Z,101741.34
2023-01-26T18:47:03.329Z,101731.13
2023-01-26T18:50:07.603Z,101738.75
2023-01-26T18:53:09.938Z,101733.09
2023-01-26T18:56:17.409Z,101730.69
2023-01-26T18:59:19.751Z,101727.44
2023-01-26T19:02:23.703Z,101727.88
2023-01-26T19:05:28.790Z,101730.00
2023-01-26T19:08:31.060Z,101727.03
2023-01-26T19:11:36.505Z,101724.72
2023-01-26T19:14:38.839Z,101717.53
2023-01-26T19:17:44.929Z,101730.00
2023-01-26T19:20:57.982Z,101716.81
2023-01-26T19:24:02.799Z,101722.34
2023-01-26T19:27:06.188Z,101713.72
2023-01-26T19:30:10.491Z,101710.72
2023-01-26T19:33:37.766Z,101718.22
2023-01-26T19:36:40.212Z,101722.91
2023-01-26T19:39:43.587Z,101718.78
2023-01-26T19:42:47.358Z,101704.91
2023-01-26T19:45:53.185Z,101699.94
2023-01-26T19:48:55.761Z,101714.84
2023-01-26T19:51:58.973Z,101702.63
2023-01-26T19:55:02.380Z,101695.84
2023-01-26T19:58:07.254Z,101700.38
2023-01-26T20:01:12.388Z,101699.38
2023-01-26T20:04:15.963Z,101697.97
2023-01-26T20:07:18.121Z,101685.09
2023-01-26T20:10:20.432Z,101693.00
2023-01-26T20:13:22.891Z,101695.00
2023-01-26T20:16:29.154Z,101689.03
2023-01-26T20:19:34.683Z,101690.88
2023-01-26T20:22:54.412Z,101685.06
2023-01-26T20:26:04.547Z,101679.13
2023-01-26T20:29:06.793Z,101681.69
2023-01-26T20:32:09.254Z,101683.94
2023-01-26T20:35:13.293Z,101680.41
2023-01-26T20:38:15.481Z,101666.22
2023-01-26T20:41:23.745Z,101676.28
2023-01-26T20:44:26.071Z,101678.84
2023-01-26T20:47:28.028Z,101675.00
2023-01-26T20:50:30.092Z,101675.44
2023-01-26T20:53:32.395Z,101673.44
2023-01-26T20:56:35.838Z,101671.31
2023-01-26T20:59:37.881Z,101668.78
2023-01-26T21:02:39.972Z,101678.56
2023-01-26T21:05:43.572Z,101663.25
2023-01-26T21:08:46.589Z,101658.72
2023-01-26T21:11:52.850Z,101662.13
2023-01-26T21:14:55.048Z,101662.25
2023-01-26T21:17:57.108Z,101655.31
2023-01-26T21:21:03.600Z,101646.53
2023-01-26T21:24:06.560Z,101645.97
2023-01-26T21:27:08.957Z,101648.94
2023-01-26T21:30:12.860Z,101645.69
2023-01-26T21:33:15.124Z,101630.38
2023-01-26T21:36:21.845Z,101640.47
2023-01-26T21:39:24.377Z,101632.09
2023-01-26T21:42:29.374Z,101636.59
2023-01-26T21:45:50.132Z,101642.44
2023-01-26T21:48:52.362Z,101641.03
2023-01-26T21:52:13.645Z,101634.50
2023-01-26T21:55:16.398Z,101633.34
2023-01-26T21:58:38.188Z,101629.81
2023-01-26T22:01:50.855Z,101633.34
2023-01-26T22:04:52.927Z,101628.69
2023-01-26T22:07:54.949Z,101627.41
2023-01-26T22:10:57.463Z,101632.50
2023-01-26T22:14:00.056Z,101623.75
2023-01-26T22:17:08.494Z,101633.63
2023-01-26T22:20:11.815Z,101635.47
2023-01-26T22:23:14.119Z,101633.63
2023-01-26T22:26:20.028Z,101630.25
2023-01-26T22:29:22.072Z,101635.47
2023-01-26T22:32:24.256Z,101635.06
2023-01-26T22:35:32.786Z,101626.00
2023-01-26T22:38:36.608Z,101637.59
2023-01-26T22:41:38.741Z,101621.63
2023-01-26T22:44:40.910Z,101633.06
2023-01-26T22:47:43.163Z,101622.63
2023-01-26T22:50:46.723Z,101622.19
2023-01-26T22:53:50.325Z,101601.81
2023-01-26T22:56:56.307Z,101616.06
2023-01-26T23:00:00.915Z,101608.56
2023-01-26T23:03:05.957Z,101604.75
2023-01-26T23:06:12.886Z,101606.75
2023-01-26T23:09:14.882Z,101605.19
2023-01-26T23:12:17.022Z,101606.75
2023-01-26T23:15:19.386Z,101595.84
2023-01-26T23:18:21.773Z,101598.97
2023-01-26T23:21:25.486Z,101597.56
2023-01-26T23:24:30.171Z,101590.59
2023-01-26T23:27:33.843Z,101585.22
2023-01-26T23:30:36.992Z,101578.28
2023-01-26T23:33:41.091Z,101583.38
2023-01-26T23:36:43.123Z,101580.41
2023-01-26T23:39:49.175Z,101577.31
2023-01-26T23:43:06.917Z,101572.50
2023-01-26T23:46:14.682Z,101568.13
2023-01-26T23:49:17.919Z,101572.78
2023-01-26T23:52:20.034Z,101558.31
2023-01-26T23:55:22.471Z,101556.50
2023-01-26T23:58:25.110Z,101552.13
